Terminal Aerodrome Forecast
Issued by NWS Portland, OR

Home | Current Version | Previous Version | Text Only | Print | Product List | Glossary On
Versions: 1 2 3 4 5 6 7 8 9 10 11 12 13 14 15 16 17 18 19
000
FTUS46 KPQR 290757 AAA
TAFEUG
TAF AMD
KEUG 290757Z 2908/3006 24006KT P6SM OVC010
     FM292100 VRB03KT P6SM SCT025
     FM300000 33007KT P6SM FEW040=

USA.gov is the U.S. government's official web portal to all federal, state and local government web resources and services.